Time;durP1;ratioP1;P1;durP2;ratioP2;P2;SDS_P1;SDS_P2;PMS_P1;PMS_P2;Temp;Humidity;BMP_temperature;BMP_pressure;BME280_temperature;BME280_humidity;BME280_pressure;Samples;Min_cycle;Max_cycle;Signal;HPM_P1;HPM_P2
2024/02/13 00:00:58;;;;;;;11.70;8.27;;;;;;;;;;5008103;28;20076;-94
2024/02/13 00:03:25;;;;;;;9.82;7.32;;;;;;;;;;5008109;28;20088;-95
2024/02/13 00:05:53;;;;;;;15.38;8.40;;;;;;;;;;5008344;28;20115;-95
2024/02/13 00:08:20;;;;;;;7.95;7.15;;;;;;;;;;5011179;28;20046;-95
2024/02/13 00:10:56;;;;;;;11.57;6.75;;;;;;;;;;5017436;28;20053;-94
2024/02/13 00:13:23;;;;;;;13.27;8.15;;;;;;;;;;5008206;28;20049;-96
2024/02/13 00:15:51;;;;;;;12.10;8.50;;;;;;;;;;5016688;28;20053;-95
2024/02/13 00:18:19;;;;;;;14.25;9.63;;;;;;;;;;5008982;28;20081;-94
2024/02/13 00:20:47;;;;;;;12.63;8.75;;;;;;;;;;5006756;28;20057;-94
2024/02/13 00:23:17;;;;;;;14.23;8.95;;;;;;;;;;5004924;28;20060;-94
2024/02/13 00:25:44;;;;;;;12.80;8.73;;;;;;;;;;5007463;28;20137;-95
2024/02/13 00:28:11;;;;;;;13.68;9.00;;;;;;;;;;5011946;28;20107;-95
2024/02/13 00:30:40;;;;;;;16.27;9.27;;;;;;;;;;5011813;28;20072;-95
2024/02/13 00:33:07;;;;;;;16.58;9.85;;;;;;;;;;5007992;28;20053;-95
2024/02/13 00:35:35;;;;;;;14.23;9.43;;;;;;;;;;5007591;28;20046;-94
2024/02/13 00:38:03;;;;;;;16.00;10.23;;;;;;;;;;5012480;28;20391;-96
2024/02/13 00:40:30;;;;;;;13.80;9.15;;;;;;;;;;5017166;28;20057;-95
2024/02/13 00:42:57;;;;;;;12.23;9.45;;;;;;;;;;5010936;28;20045;-95
2024/02/13 00:45:27;;;;;;;16.02;9.40;;;;;;;;;;5014024;28;20080;-96
2024/02/13 00:47:55;;;;;;;13.68;9.05;;;;;;;;;;5010865;28;20305;-95
2024/02/13 00:50:22;;;;;;;12.07;9.13;;;;;;;;;;5017999;28;20202;-95
2024/02/13 00:52:50;;;;;;;14.60;9.43;;;;;;;;;;5023785;28;20030;-94
2024/02/13 00:55:17;;;;;;;14.55;9.05;;;;;;;;;;5005157;28;20494;-94
2024/02/13 00:57:46;;;;;;;12.13;8.25;;;;;;;;;;5022886;28;20136;-94
2024/02/13 01:00:14;;;;;;;11.77;8.40;;;;;;;;;;5011982;28;20057;-95
2024/02/13 01:02:41;;;;;;;11.68;8.70;;;;;;;;;;5011981;28;20053;-95
2024/02/13 01:05:09;;;;;;;9.82;7.97;;;;;;;;;;5011714;28;20120;-95
2024/02/13 01:07:37;;;;;;;11.55;7.10;;;;;;;;;;5011927;28;20085;-95
2024/02/13 01:10:06;;;;;;;9.43;7.13;;;;;;;;;;5007951;28;20057;-95
2024/02/13 01:12:34;;;;;;;9.85;7.15;;;;;;;;;;5007788;28;20077;-95
2024/02/13 01:15:01;;;;;;;9.02;7.03;;;;;;;;;;5010711;28;20498;-95
2024/02/13 01:17:29;;;;;;;10.73;7.65;;;;;;;;;;5011801;28;20053;-94
2024/02/13 01:19:57;;;;;;;13.15;8.10;;;;;;;;;;5012629;28;20077;-95
2024/02/13 01:22:24;;;;;;;14.00;7.82;;;;;;;;;;5007307;28;20506;-94
2024/02/13 01:24:52;;;;;;;11.25;7.38;;;;;;;;;;5019021;28;20077;-95
2024/02/13 01:27:20;;;;;;;11.15;7.05;;;;;;;;;;5011752;28;20053;-94
2024/02/13 01:29:47;;;;;;;13.65;7.35;;;;;;;;;;5011590;28;20056;-95
2024/02/13 01:32:16;;;;;;;9.90;6.93;;;;;;;;;;5008648;28;20052;-95
2024/02/13 01:34:44;;;;;;;8.18;6.60;;;;;;;;;;5008146;28;20046;-95
2024/02/13 01:37:12;;;;;;;10.70;6.68;;;;;;;;;;5009765;28;20414;-95
2024/02/13 01:39:39;;;;;;;8.93;6.90;;;;;;;;;;5011087;28;20079;-95
2024/02/13 01:42:06;;;;;;;10.10;6.60;;;;;;;;;;5007648;28;20101;-95
2024/02/13 01:44:33;;;;;;;10.40;6.43;;;;;;;;;;5013303;28;20062;-95
2024/02/13 01:47:02;;;;;;;8.85;6.90;;;;;;;;;;5011875;28;20057;-94
2024/02/13 01:49:29;;;;;;;11.25;6.03;;;;;;;;;;5013536;28;20054;-94
2024/02/13 01:51:57;;;;;;;7.80;5.65;;;;;;;;;;5016594;28;20060;-95
2024/02/13 01:54:26;;;;;;;7.40;5.80;;;;;;;;;;5008009;28;20108;-95
2024/02/13 01:56:54;;;;;;;16.48;6.35;;;;;;;;;;5008959;28;20057;-95
2024/02/13 01:59:22;;;;;;;8.65;6.25;;;;;;;;;;5008795;28;20077;-94
2024/02/13 02:01:50;;;;;;;8.90;6.53;;;;;;;;;;5011275;28;20056;-93
2024/02/13 02:04:18;;;;;;;10.10;5.50;;;;;;;;;;5012928;28;20050;-94
2024/02/13 02:06:47;;;;;;;6.28;5.40;;;;;;;;;;5017633;28;20041;-94
2024/02/13 02:09:15;;;;;;;9.95;5.70;;;;;;;;;;5021976;28;20050;-95
2024/02/13 02:11:42;;;;;;;10.13;6.20;;;;;;;;;;5015619;28;20054;-94
2024/02/13 02:14:10;;;;;;;10.00;6.45;;;;;;;;;;5005718;28;20050;-95
2024/02/13 02:16:38;;;;;;;10.70;6.75;;;;;;;;;;5020533;28;20049;-95
2024/02/13 02:19:05;;;;;;;10.15;6.68;;;;;;;;;;5016260;28;20485;-95
2024/02/13 02:21:33;;;;;;;15.23;6.68;;;;;;;;;;5009621;28;20063;-94
2024/02/13 02:24:01;;;;;;;12.85;7.28;;;;;;;;;;5012063;28;20490;-95
2024/02/13 02:26:30;;;;;;;14.10;7.38;;;;;;;;;;5022257;28;20069;-95
2024/02/13 02:28:57;;;;;;;10.40;6.38;;;;;;;;;;5022671;28;20056;-94
2024/02/13 02:31:24;;;;;;;15.93;7.20;;;;;;;;;;5015707;28;20418;-94
2024/02/13 02:33:52;;;;;;;10.63;7.28;;;;;;;;;;5009442;28;20049;-95
2024/02/13 02:36:19;;;;;;;11.98;7.07;;;;;;;;;;5009346;28;20073;-95
2024/02/13 02:38:47;;;;;;;10.05;6.50;;;;;;;;;;5015995;28;20054;-96
2024/02/13 02:41:15;;;;;;;11.00;6.78;;;;;;;;;;5022581;28;20054;-95
2024/02/13 02:43:44;;;;;;;8.32;5.68;;;;;;;;;;5021210;28;20062;-94
2024/02/13 02:46:12;;;;;;;9.77;6.32;;;;;;;;;;5021014;28;20133;-95
2024/02/13 02:48:41;;;;;;;10.15;6.25;;;;;;;;;;5021085;28;20058;-95
2024/02/13 02:51:09;;;;;;;8.48;6.15;;;;;;;;;;5018594;28;20053;-95
2024/02/13 02:53:36;;;;;;;12.32;5.70;;;;;;;;;;5019152;28;20054;-95
2024/02/13 02:56:04;;;;;;;12.95;6.40;;;;;;;;;;5019191;28;20462;-94
2024/02/13 02:58:36;;;;;;;10.70;6.72;;;;;;;;;;5030030;28;20560;-95
2024/02/13 03:01:09;;;;;;;9.45;6.45;;;;;;;;;;5018544;28;20077;-95
2024/02/13 03:03:39;;;;;;;7.97;5.53;;;;;;;;;;5011671;28;20057;-95
2024/02/13 03:06:10;;;;;;;7.22;5.90;;;;;;;;;;5032158;28;20101;-95
2024/02/13 03:08:40;;;;;;;10.00;6.03;;;;;;;;;;5033846;23;20049;-82
2024/02/13 03:11:08;;;;;;;8.05;5.97;;;;;;;;;;4995214;28;20047;-80
2024/02/13 03:13:36;;;;;;;9.88;6.13;;;;;;;;;;4997395;28;20046;-81
2024/02/13 03:16:04;;;;;;;7.18;5.57;;;;;;;;;;4998438;28;20050;-81
2024/02/13 03:18:32;;;;;;;9.18;5.28;;;;;;;;;;4999549;28;20042;-81
2024/02/13 03:20:59;;;;;;;11.05;5.30;;;;;;;;;;5001296;28;20054;-81
2024/02/13 03:23:26;;;;;;;9.18;4.82;;;;;;;;;;5005988;28;20078;-81
2024/02/13 03:25:54;;;;;;;8.25;5.68;;;;;;;;;;5007828;28;20124;-80
2024/02/13 03:28:22;;;;;;;9.13;5.95;;;;;;;;;;5002284;28;20050;-80
2024/02/13 03:30:53;;;;;;;10.57;5.80;;;;;;;;;;5004489;28;20050;-80
2024/02/13 03:33:20;;;;;;;11.60;6.28;;;;;;;;;;5002595;28;20051;-80
2024/02/13 03:35:48;;;;;;;15.70;6.25;;;;;;;;;;5002316;28;20081;-80
2024/02/13 03:38:16;;;;;;;15.10;7.15;;;;;;;;;;5002254;28;20054;-81
2024/02/13 03:40:43;;;;;;;9.60;6.55;;;;;;;;;;5000653;28;20057;-80
2024/02/13 03:43:11;;;;;;;9.52;6.30;;;;;;;;;;5001404;28;20484;-80
2024/02/13 03:45:38;;;;;;;12.00;6.63;;;;;;;;;;4999999;28;20421;-80
2024/02/13 03:48:06;;;;;;;11.02;6.63;;;;;;;;;;5000418;28;20120;-80
2024/02/13 03:50:33;;;;;;;8.57;5.93;;;;;;;;;;4999857;28;20469;-80
2024/02/13 03:53:01;;;;;;;17.00;7.53;;;;;;;;;;4997440;28;20077;-80
2024/02/13 03:55:28;;;;;;;10.60;5.97;;;;;;;;;;4997470;28;20046;-80
2024/02/13 03:57:55;;;;;;;7.97;5.22;;;;;;;;;;4995046;28;20050;-80
2024/02/13 04:00:22;;;;;;;10.55;5.93;;;;;;;;;;4999241;28;20046;-80
2024/02/13 04:02:50;;;;;;;8.70;5.75;;;;;;;;;;5001008;28;20050;-80
2024/02/13 04:05:17;;;;;;;9.15;6.22;;;;;;;;;;4999345;28;20118;-80
2024/02/13 04:07:44;;;;;;;14.38;6.18;;;;;;;;;;5000244;28;20104;-80
2024/02/13 04:10:12;;;;;;;10.10;6.70;;;;;;;;;;5000213;28;20054;-80
2024/02/13 04:12:39;;;;;;;11.55;7.35;;;;;;;;;;5003597;28;20056;-80
2024/02/13 04:15:06;;;;;;;12.70;8.55;;;;;;;;;;5002236;28;20069;-81
2024/02/13 04:17:34;;;;;;;15.65;9.30;;;;;;;;;;5003000;28;20046;-80
2024/02/13 04:20:03;;;;;;;18.15;8.75;;;;;;;;;;5011955;28;20050;-81
2024/02/13 04:22:30;;;;;;;20.33;8.40;;;;;;;;;;5010174;28;20110;-81
2024/02/13 04:24:58;;;;;;;14.48;8.43;;;;;;;;;;5010855;28;20070;-81
2024/02/13 04:27:25;;;;;;;12.13;7.45;;;;;;;;;;5010456;28;20054;-81
2024/02/13 04:29:53;;;;;;;15.40;7.57;;;;;;;;;;5008562;28;20118;-80
2024/02/13 04:32:20;;;;;;;11.27;6.82;;;;;;;;;;5005818;28;20046;-82
2024/02/13 04:34:47;;;;;;;14.30;7.43;;;;;;;;;;5006804;28;20054;-81
2024/02/13 04:37:15;;;;;;;15.43;7.05;;;;;;;;;;5006269;28;20061;-81
2024/02/13 04:39:42;;;;;;;10.48;7.13;;;;;;;;;;5006312;28;20050;-81
2024/02/13 04:42:11;;;;;;;19.00;10.45;;;;;;;;;;5005905;28;20046;-81
2024/02/13 04:44:38;;;;;;;12.52;6.90;;;;;;;;;;5006090;28;20043;-81
2024/02/13 04:47:06;;;;;;;10.70;6.25;;;;;;;;;;5004567;28;20065;-81
2024/02/13 04:49:33;;;;;;;14.25;6.20;;;;;;;;;;5006451;28;20054;-81
2024/02/13 04:52:01;;;;;;;9.88;6.25;;;;;;;;;;5006798;28;20065;-81
2024/02/13 04:54:28;;;;;;;11.95;7.32;;;;;;;;;;5006352;28;20464;-80
2024/02/13 04:56:55;;;;;;;15.73;7.50;;;;;;;;;;5007094;28;20073;-80
2024/02/13 04:59:23;;;;;;;10.95;6.80;;;;;;;;;;5006345;28;20042;-80
2024/02/13 05:01:52;;;;;;;15.88;7.13;;;;;;;;;;5005409;28;20054;-80
2024/02/13 05:09:33;;;;;;;15.25;8.32;;;;;;;;;;5004803;28;20081;-80
2024/02/13 05:12:00;;;;;;;13.88;7.03;;;;;;;;;;5003028;28;20047;-80
2024/02/13 05:14:27;;;;;;;17.05;8.68;;;;;;;;;;5003485;28;20050;-80
2024/02/13 05:16:55;;;;;;;23.70;9.82;;;;;;;;;;5002457;28;20050;-80
2024/02/13 05:19:22;;;;;;;15.30;8.98;;;;;;;;;;5000713;28;20042;-80
2024/02/13 05:21:50;;;;;;;16.88;8.55;;;;;;;;;;5000288;28;20151;-80
2024/02/13 05:24:18;;;;;;;22.40;9.02;;;;;;;;;;5005572;28;20043;-81
2024/02/13 05:26:45;;;;;;;14.38;8.15;;;;;;;;;;4984782;28;20074;-81
2024/02/13 05:29:13;;;;;;;46.85;10.88;;;;;;;;;;4982517;28;20047;-80
2024/02/13 05:31:41;;;;;;;68.03;11.68;;;;;;;;;;4979406;28;20059;-80
2024/02/13 05:34:09;;;;;;;23.17;9.82;;;;;;;;;;4980207;28;20134;-80
2024/02/13 05:36:37;;;;;;;14.27;8.48;;;;;;;;;;4986892;28;20101;-80
2024/02/13 05:39:04;;;;;;;24.40;11.25;;;;;;;;;;4983063;28;20153;-81
2024/02/13 05:41:31;;;;;;;40.55;11.18;;;;;;;;;;4997711;28;20100;-81
2024/02/13 05:44:02;;;;;;;29.17;10.93;;;;;;;;;;4999689;28;20081;-80
2024/02/13 05:46:30;;;;;;;28.02;11.00;;;;;;;;;;4998188;28;20148;-80
2024/02/13 05:49:00;;;;;;;18.27;9.93;;;;;;;;;;5000382;28;20129;-80
2024/02/13 05:51:27;;;;;;;13.00;8.75;;;;;;;;;;5007039;28;20066;-81
2024/02/13 05:53:55;;;;;;;25.52;11.38;;;;;;;;;;5010245;28;20065;-81
2024/02/13 05:56:25;;;;;;;16.63;8.85;;;;;;;;;;5006482;28;20134;-81
2024/02/13 05:58:57;;;;;;;20.95;10.23;;;;;;;;;;5007488;28;20054;-81
2024/02/13 06:01:25;;;;;;;15.65;8.90;;;;;;;;;;5005765;28;20062;-81
2024/02/13 06:03:56;;;;;;;52.63;11.55;;;;;;;;;;5004786;28;20475;-81
2024/02/13 06:06:25;;;;;;;16.83;9.68;;;;;;;;;;5007781;28;20484;-80
2024/02/13 06:08:53;;;;;;;18.67;10.50;;;;;;;;;;5006260;28;20529;-81
2024/02/13 06:11:21;;;;;;;39.15;11.23;;;;;;;;;;5003948;28;20057;-81
2024/02/13 06:13:49;;;;;;;34.92;12.10;;;;;;;;;;5002272;28;20058;-81
2024/02/13 06:16:17;;;;;;;27.42;10.63;;;;;;;;;;5004286;28;20049;-81
2024/02/13 06:18:48;;;;;;;23.70;10.40;;;;;;;;;;5002821;28;20047;-81
2024/02/13 06:21:19;;;;;;;38.28;13.35;;;;;;;;;;5002279;28;20051;-81
2024/02/13 06:23:51;;;;;;;43.00;13.32;;;;;;;;;;5001751;28;20108;-81
2024/02/13 06:26:19;;;;;;;30.42;11.80;;;;;;;;;;5008293;28;20056;-81
2024/02/13 06:28:46;;;;;;;26.55;13.60;;;;;;;;;;5007410;28;20050;-81
2024/02/13 06:31:14;;;;;;;30.58;13.30;;;;;;;;;;5005624;28;20116;-81
2024/02/13 06:33:41;;;;;;;35.65;14.63;;;;;;;;;;5005672;28;20113;-81
2024/02/13 06:36:10;;;;;;;30.10;13.60;;;;;;;;;;5005288;28;20101;-81
2024/02/13 06:38:37;;;;;;;28.33;13.20;;;;;;;;;;5005521;28;20101;-81
2024/02/13 06:41:08;;;;;;;27.77;14.10;;;;;;;;;;4987209;28;20078;-81
2024/02/13 06:43:35;;;;;;;43.22;15.32;;;;;;;;;;5009812;28;20074;-81
2024/02/13 06:46:03;;;;;;;25.75;12.40;;;;;;;;;;5009904;28;20054;-81
2024/02/13 06:48:31;;;;;;;25.08;12.82;;;;;;;;;;5008065;28;20058;-81
2024/02/13 06:50:58;;;;;;;57.05;14.00;;;;;;;;;;5007555;28;20173;-81
2024/02/13 06:53:27;;;;;;;20.48;10.20;;;;;;;;;;5006983;28;20061;-81
2024/02/13 06:55:54;;;;;;;24.88;11.98;;;;;;;;;;5004473;28;20498;-81
2024/02/13 06:58:21;;;;;;;23.83;11.88;;;;;;;;;;5004213;28;20047;-81
2024/02/13 07:00:49;;;;;;;61.28;16.60;;;;;;;;;;5005680;28;20478;-81
2024/02/13 07:03:16;;;;;;;56.38;14.40;;;;;;;;;;5006091;28;20137;-81
2024/02/13 07:05:44;;;;;;;27.63;13.35;;;;;;;;;;5003987;28;20054;-81
2024/02/13 07:08:11;;;;;;;25.52;13.73;;;;;;;;;;5003888;28;20054;-81
2024/02/13 07:10:38;;;;;;;34.78;15.45;;;;;;;;;;5003114;28;20050;-82
2024/02/13 07:13:06;;;;;;;38.08;18.40;;;;;;;;;;5004105;28;20054;-81
2024/02/13 07:15:35;;;;;;;62.83;29.88;;;;;;;;;;5002622;28;20050;-81
2024/02/13 07:18:03;;;;;;;28.88;14.45;;;;;;;;;;4999586;28;20074;-82
2024/02/13 07:20:30;;;;;;;53.63;18.45;;;;;;;;;;5000546;28;20046;-81
2024/02/13 07:22:58;;;;;;;48.67;20.83;;;;;;;;;;4999362;28;20054;-81
2024/02/13 07:25:25;;;;;;;22.20;12.82;;;;;;;;;;5001291;28;20046;-81
2024/02/13 07:27:53;;;;;;;33.80;15.73;;;;;;;;;;5000045;28;20129;-81
2024/02/13 07:30:21;;;;;;;27.23;15.07;;;;;;;;;;4998570;28;20050;-81
2024/02/13 07:32:49;;;;;;;25.70;14.73;;;;;;;;;;4998856;28;20050;-81
2024/02/13 07:35:16;;;;;;;26.40;13.50;;;;;;;;;;5000692;28;20504;-81
2024/02/13 07:37:44;;;;;;;18.40;11.15;;;;;;;;;;5003132;28;20051;-81
2024/02/13 07:40:13;;;;;;;22.65;11.27;;;;;;;;;;5001269;28;20054;-82
2024/02/13 07:42:40;;;;;;;27.33;12.25;;;;;;;;;;5002409;28;20123;-81
2024/02/13 07:45:08;;;;;;;30.20;14.00;;;;;;;;;;5001869;28;20050;-81
2024/02/13 07:47:36;;;;;;;30.55;14.52;;;;;;;;;;5001809;28;20106;-81
2024/02/13 07:50:04;;;;;;;46.38;23.58;;;;;;;;;;5002333;28;20074;-80
2024/02/13 07:52:31;;;;;;;33.83;18.40;;;;;;;;;;5001009;28;20129;-81
2024/02/13 07:55:00;;;;;;;63.38;33.90;;;;;;;;;;5003243;28;20773;-81
2024/02/13 07:57:28;;;;;;;38.17;15.77;;;;;;;;;;5011726;28;20521;-82
2024/02/13 07:59:55;;;;;;;29.13;14.38;;;;;;;;;;5011365;28;20050;-81
2024/02/13 08:02:23;;;;;;;28.33;14.13;;;;;;;;;;5009907;28;20050;-81
2024/02/13 08:04:51;;;;;;;29.45;14.02;;;;;;;;;;5010707;28;20046;-81
2024/02/13 08:07:19;;;;;;;44.55;19.23;;;;;;;;;;5009869;28;20058;-81
2024/02/13 08:09:47;;;;;;;28.25;15.10;;;;;;;;;;5010259;28;20065;-82
2024/02/13 08:12:15;;;;;;;27.90;15.10;;;;;;;;;;5011953;28;20109;-81
2024/02/13 08:14:43;;;;;;;36.10;15.73;;;;;;;;;;5010599;28;20429;-81
2024/02/13 08:17:10;;;;;;;29.70;15.32;;;;;;;;;;5012200;28;20051;-81
2024/02/13 08:19:40;;;;;;;41.00;19.80;;;;;;;;;;5010961;28;20624;-82
2024/02/13 08:22:08;;;;;;;35.05;18.50;;;;;;;;;;5007549;28;20108;-81
2024/02/13 08:24:35;;;;;;;25.58;14.85;;;;;;;;;;5006845;28;20058;-81
2024/02/13 08:27:05;;;;;;;30.08;15.70;;;;;;;;;;5006894;28;20113;-81
2024/02/13 08:29:32;;;;;;;38.85;19.33;;;;;;;;;;5007313;28;20109;-81
2024/02/13 08:32:00;;;;;;;37.92;18.85;;;;;;;;;;5005449;28;20128;-81
2024/02/13 08:34:28;;;;;;;36.50;20.55;;;;;;;;;;5004631;28;20060;-81
2024/02/13 08:36:55;;;;;;;44.78;19.45;;;;;;;;;;5006712;28;20046;-81
2024/02/13 08:39:23;;;;;;;1999.90;622.53;;;;;;;;;;5006427;28;20133;-80
2024/02/13 08:41:51;;;;;;;1999.90;250.85;;;;;;;;;;5006426;28;20137;-81
2024/02/13 08:44:19;;;;;;;1999.90;719.22;;;;;;;;;;5007222;28;20054;-82
2024/02/13 08:46:46;;;;;;;518.00;72.13;;;;;;;;;;5003869;28;20118;-81
2024/02/13 08:49:13;;;;;;;848.25;123.80;;;;;;;;;;5008517;28;20108;-81
2024/02/13 08:51:41;;;;;;;144.00;32.67;;;;;;;;;;5005687;28;20088;-81
2024/02/13 08:54:11;;;;;;;29.73;20.00;;;;;;;;;;5004964;28;20097;-80
2024/02/13 08:56:39;;;;;;;19.63;13.88;;;;;;;;;;5003608;28;20046;-81
2024/02/13 08:59:07;;;;;;;22.50;13.68;;;;;;;;;;5003879;28;20056;-82
2024/02/13 09:01:34;;;;;;;12.73;10.32;;;;;;;;;;5003118;28;20486;-82
2024/02/13 09:04:02;;;;;;;13.77;10.07;;;;;;;;;;5003466;28;20046;-82
2024/02/13 09:06:30;;;;;;;7.20;6.50;;;;;;;;;;5006669;28;20074;-81
2024/02/13 09:08:57;;;;;;;9.35;5.75;;;;;;;;;;5011400;28;20054;-82
2024/02/13 09:11:28;;;;;;;5.57;5.07;;;;;;;;;;5008510;28;20050;-82
2024/02/13 09:13:55;;;;;;;6.90;3.90;;;;;;;;;;5007718;28;20050;-82
2024/02/13 09:16:22;;;;;;;7.03;3.35;;;;;;;;;;5010567;28;20576;-81
2024/02/13 09:18:53;;;;;;;6.93;3.75;;;;;;;;;;5008581;28;20046;-82
2024/02/13 09:21:21;;;;;;;4.82;3.28;;;;;;;;;;5009367;23;20511;-88
2024/02/13 09:23:48;;;;;;;4.93;3.40;;;;;;;;;;5019547;28;20042;-87
2024/02/13 09:26:15;;;;;;;3.28;2.95;;;;;;;;;;5009511;28;20072;-87
2024/02/13 09:28:44;;;;;;;4.28;3.30;;;;;;;;;;5010585;28;20054;-87
2024/02/13 09:31:12;;;;;;;3.80;3.50;;;;;;;;;;5003198;28;20056;-88
2024/02/13 09:33:40;;;;;;;4.28;3.35;;;;;;;;;;5016536;23;20144;-87
2024/02/13 09:36:08;;;;;;;5.07;3.50;;;;;;;;;;5025248;23;20076;-82
2024/02/13 09:38:38;;;;;;;3.85;3.42;;;;;;;;;;5012287;28;20070;-82
2024/02/13 09:41:06;;;;;;;6.47;3.75;;;;;;;;;;5005573;28;20108;-81
2024/02/13 09:43:33;;;;;;;3.70;3.30;;;;;;;;;;5012527;28;20052;-82
2024/02/13 09:46:01;;;;;;;4.47;3.20;;;;;;;;;;5012422;28;20042;-83
2024/02/13 09:48:29;;;;;;;5.00;3.65;;;;;;;;;;5034118;23;20050;-83
2024/02/13 09:50:58;;;;;;;4.00;3.70;;;;;;;;;;5031263;28;20100;-82
2024/02/13 09:53:29;;;;;;;5.20;3.63;;;;;;;;;;5017793;28;20050;-82
2024/02/13 09:55:57;;;;;;;5.82;4.18;;;;;;;;;;5032905;28;20130;-82
2024/02/13 09:58:25;;;;;;;4.35;3.90;;;;;;;;;;5032122;28;20084;-82
2024/02/13 10:00:53;;;;;;;5.20;4.13;;;;;;;;;;5018272;28;20053;-83
2024/02/13 10:03:26;;;;;;;5.10;4.27;;;;;;;;;;5016937;28;20096;-82
2024/02/13 10:05:53;;;;;;;7.32;4.20;;;;;;;;;;5016679;28;20054;-82
2024/02/13 10:08:26;;;;;;;4.25;3.60;;;;;;;;;;5019084;28;20049;-82
2024/02/13 10:11:01;;;;;;;4.28;3.38;;;;;;;;;;5016792;28;20061;-82
2024/02/13 10:13:38;;;;;;;8.13;4.70;;;;;;;;;;5014295;28;20081;-82
2024/02/13 10:16:19;;;;;;;7.68;5.13;;;;;;;;;;5015622;28;20096;-82
2024/02/13 10:18:57;;;;;;;8.75;4.82;;;;;;;;;;5014499;28;20052;-82
2024/02/13 10:21:25;;;;;;;5.22;3.88;;;;;;;;;;5014733;28;20069;-82
2024/02/13 10:24:13;;;;;;;4.93;3.67;;;;;;;;;;5014694;28;20452;-81
2024/02/13 10:26:41;;;;;;;3.67;3.38;;;;;;;;;;5013284;28;20045;-82
2024/02/13 10:29:09;;;;;;;3.92;3.53;;;;;;;;;;5013408;28;20054;-81
2024/02/13 10:31:37;;;;;;;4.32;3.20;;;;;;;;;;5013262;28;20054;-82
2024/02/13 10:34:09;;;;;;;3.97;2.92;;;;;;;;;;5013608;28;20053;-81
2024/02/13 10:36:38;;;;;;;3.35;3.05;;;;;;;;;;5014553;28;20050;-79
2024/02/13 10:39:08;;;;;;;4.35;2.75;;;;;;;;;;5013184;28;20409;-81
2024/02/13 10:41:39;;;;;;;5.35;2.88;;;;;;;;;;5015084;28;20074;-79
2024/02/13 10:44:10;;;;;;;3.95;2.63;;;;;;;;;;5014924;28;20050;-79
2024/02/13 10:46:39;;;;;;;3.75;2.50;;;;;;;;;;5014391;28;20045;-81
2024/02/13 10:49:45;;;;;;;5.93;2.90;;;;;;;;;;5014498;28;20559;-80
2024/02/13 10:52:12;;;;;;;4.97;3.22;;;;;;;;;;4974626;28;20129;-81
2024/02/13 10:54:46;;;;;;;4.55;3.15;;;;;;;;;;4975179;28;20058;-82
2024/02/13 10:57:17;;;;;;;5.32;3.88;;;;;;;;;;4997049;28;20066;-82
2024/02/13 10:59:45;;;;;;;4.72;3.30;;;;;;;;;;5015684;28;20054;-82
2024/02/13 11:02:14;;;;;;;3.65;3.28;;;;;;;;;;5017039;28;20416;-82
2024/02/13 11:04:43;;;;;;;4.80;2.90;;;;;;;;;;5018856;28;20104;-81
2024/02/13 11:07:11;;;;;;;4.22;3.00;;;;;;;;;;5013023;28;20061;-81
2024/02/13 11:09:38;;;;;;;4.47;2.55;;;;;;;;;;5015039;28;20053;-82
2024/02/13 11:12:06;;;;;;;2.17;1.95;;;;;;;;;;5016189;28;20058;-82
2024/02/13 11:14:33;;;;;;;4.22;2.45;;;;;;;;;;5014637;28;20049;-82
2024/02/13 11:17:03;;;;;;;4.95;2.45;;;;;;;;;;5014113;28;20053;-82
2024/02/13 11:19:38;;;;;;;5.45;2.47;;;;;;;;;;5013213;28;20459;-82
2024/02/13 11:22:14;;;;;;;3.10;2.30;;;;;;;;;;5014179;28;20124;-82
2024/02/13 11:24:43;;;;;;;2.88;2.60;;;;;;;;;;5014435;28;20057;-81
2024/02/13 11:27:17;;;;;;;5.47;2.97;;;;;;;;;;5015342;28;20064;-82
2024/02/13 11:29:57;;;;;;;5.18;2.50;;;;;;;;;;5014201;28;20050;-82
2024/02/13 11:32:33;;;;;;;4.25;2.63;;;;;;;;;;5013271;28;20057;-82
2024/02/13 11:35:01;;;;;;;7.88;3.28;;;;;;;;;;5013003;28;20097;-81
2024/02/13 11:37:30;;;;;;;4.55;3.60;;;;;;;;;;5013000;28;20046;-82
2024/02/13 11:39:58;;;;;;;3.83;3.13;;;;;;;;;;5014183;28;20050;-82
2024/02/13 11:42:34;;;;;;;5.05;3.10;;;;;;;;;;5014269;28;20053;-82
2024/02/13 11:45:02;;;;;;;8.95;3.08;;;;;;;;;;5013143;28;20464;-82
2024/02/13 11:47:29;;;;;;;5.15;3.17;;;;;;;;;;5015178;28;20444;-82
2024/02/13 11:49:57;;;;;;;4.07;2.60;;;;;;;;;;5015159;28;20073;-82
2024/02/13 11:52:24;;;;;;;3.70;2.50;;;;;;;;;;5014438;28;20425;-81
2024/02/13 11:54:52;;;;;;;4.50;2.88;;;;;;;;;;5014183;28;20054;-82
2024/02/13 11:57:20;;;;;;;3.13;2.70;;;;;;;;;;5013244;28;20046;-82
2024/02/13 11:59:58;;;;;;;2.95;2.60;;;;;;;;;;5014238;28;20058;-81
2024/02/13 12:02:26;;;;;;;3.45;2.38;;;;;;;;;;5013487;28;20519;-82
2024/02/13 12:04:55;;;;;;;2.47;2.22;;;;;;;;;;5014418;28;20104;-82
2024/02/13 12:07:23;;;;;;;3.10;2.80;;;;;;;;;;5013480;28;20144;-82
2024/02/13 12:09:52;;;;;;;3.50;2.20;;;;;;;;;;5012748;28;20045;-81
2024/02/13 12:12:20;;;;;;;16.90;3.17;;;;;;;;;;5013670;28;20046;-82
2024/02/13 12:14:52;;;;;;;4.72;2.15;;;;;;;;;;5013350;28;20054;-82
2024/02/13 12:17:20;;;;;;;8.80;2.78;;;;;;;;;;5012052;28;20050;-82
2024/02/13 12:19:48;;;;;;;4.93;2.05;;;;;;;;;;5013173;28;20050;-82
2024/02/13 12:22:17;;;;;;;2.88;1.88;;;;;;;;;;5016175;28;20076;-79
2024/02/13 12:24:45;;;;;;;3.17;2.25;;;;;;;;;;5018810;28;20448;-81
2024/02/13 12:27:16;;;;;;;3.45;1.98;;;;;;;;;;5017720;28;20077;-82
2024/02/13 12:29:44;;;;;;;8.95;2.65;;;;;;;;;;5018559;28;20120;-82
2024/02/13 12:32:16;;;;;;;3.53;2.33;;;;;;;;;;5020994;28;20073;-82
2024/02/13 12:34:48;;;;;;;3.75;2.15;;;;;;;;;;5020232;28;20045;-82
2024/02/13 12:37:17;;;;;;;3.00;1.80;;;;;;;;;;5019373;28;20049;-82
2024/02/13 12:39:45;;;;;;;3.63;2.05;;;;;;;;;;5019024;28;20050;-82
2024/02/13 12:42:13;;;;;;;6.68;1.80;;;;;;;;;;5019586;28;20073;-82
2024/02/13 12:44:41;;;;;;;6.53;2.22;;;;;;;;;;5019245;28;20127;-82
2024/02/13 12:47:13;;;;;;;2.67;1.40;;;;;;;;;;5017135;28;20069;-82
2024/02/13 12:49:42;;;;;;;5.72;2.00;;;;;;;;;;5017796;28;20465;-82
2024/02/13 12:52:17;;;;;;;3.40;1.58;;;;;;;;;;5017299;28;20050;-82
2024/02/13 12:54:46;;;;;;;2.05;1.80;;;;;;;;;;5017212;28;20050;-82
2024/02/13 12:57:14;;;;;;;3.70;1.98;;;;;;;;;;5015694;28;20077;-81
2024/02/13 12:59:43;;;;;;;3.25;1.70;;;;;;;;;;5017079;28;20052;-82
2024/02/13 13:02:13;;;;;;;3.15;2.10;;;;;;;;;;5017576;28;20092;-82
2024/02/13 13:04:41;;;;;;;2.60;1.75;;;;;;;;;;5016161;28;20046;-82
2024/02/13 13:07:11;;;;;;;1.65;1.55;;;;;;;;;;5016758;28;20102;-82
2024/02/13 13:09:40;;;;;;;3.05;1.52;;;;;;;;;;5014968;28;20050;-82
2024/02/13 13:12:08;;;;;;;1.95;1.80;;;;;;;;;;5016205;28;20060;-82
2024/02/13 13:14:42;;;;;;;2.17;1.55;;;;;;;;;;5017050;28;20049;-82
2024/02/13 13:17:11;;;;;;;2.33;1.63;;;;;;;;;;5016783;28;20070;-82
2024/02/13 13:19:38;;;;;;;1.50;1.40;;;;;;;;;;5016203;28;20112;-82
2024/02/13 13:22:06;;;;;;;4.13;1.95;;;;;;;;;;5005040;28;20042;-81
2024/02/13 13:24:33;;;;;;;3.03;1.58;;;;;;;;;;5012366;28;20050;-81
2024/02/13 13:27:00;;;;;;;4.20;2.10;;;;;;;;;;5015999;28;20150;-82
2024/02/13 13:29:29;;;;;;;2.55;1.77;;;;;;;;;;5016113;28;20408;-82
2024/02/13 13:31:57;;;;;;;4.10;1.50;;;;;;;;;;5014710;28;20050;-82
2024/02/13 13:34:25;;;;;;;2.85;1.70;;;;;;;;;;5015816;28;20050;-82
2024/02/13 13:36:55;;;;;;;2.50;1.60;;;;;;;;;;5016398;28;20057;-82
2024/02/13 13:39:28;;;;;;;3.92;1.65;;;;;;;;;;5017117;28;20421;-82
2024/02/13 13:42:07;;;;;;;14.32;2.33;;;;;;;;;;5016643;28;20452;-82
2024/02/13 13:44:36;;;;;;;5.15;1.73;;;;;;;;;;5014665;28;20125;-82
2024/02/13 13:47:03;;;;;;;4.13;1.50;;;;;;;;;;5015375;28;20574;-82
2024/02/13 13:49:30;;;;;;;10.55;1.70;;;;;;;;;;5016359;28;20104;-82
2024/02/13 13:51:58;;;;;;;5.55;1.75;;;;;;;;;;5014535;28;20072;-82
2024/02/13 13:54:25;;;;;;;3.28;1.15;;;;;;;;;;5016771;28;20115;-82
2024/02/13 13:56:52;;;;;;;1.95;1.15;;;;;;;;;;5014743;28;20050;-82
2024/02/13 13:59:20;;;;;;;2.50;1.25;;;;;;;;;;5015952;28;20057;-81
2024/02/13 14:01:48;;;;;;;1.75;1.00;;;;;;;;;;5019251;28;20054;-82
2024/02/13 14:04:15;;;;;;;2.25;1.30;;;;;;;;;;5020439;28;20049;-82
2024/02/13 14:06:43;;;;;;;3.67;1.35;;;;;;;;;;5017983;28;20125;-81
2024/02/13 14:09:11;;;;;;;7.63;1.25;;;;;;;;;;5019126;28;20125;-81
2024/02/13 14:11:38;;;;;;;4.43;1.55;;;;;;;;;;5019062;28;20432;-82
2024/02/13 14:14:07;;;;;;;4.82;1.42;;;;;;;;;;5017950;28;20428;-81
2024/02/13 14:16:34;;;;;;;3.95;1.40;;;;;;;;;;5017659;28;20072;-82
2024/02/13 14:19:01;;;;;;;3.08;1.10;;;;;;;;;;5015552;28;20053;-82
2024/02/13 14:21:29;;;;;;;4.85;1.40;;;;;;;;;;5017486;28;20125;-82
2024/02/13 14:23:58;;;;;;;2.17;1.00;;;;;;;;;;5015905;28;20045;-82
2024/02/13 14:26:25;;;;;;;3.83;1.33;;;;;;;;;;5016224;28;20129;-82
2024/02/13 14:28:52;;;;;;;1.58;1.30;;;;;;;;;;5014558;28;20527;-82
2024/02/13 14:31:20;;;;;;;2.65;1.30;;;;;;;;;;5013493;28;20065;-82
2024/02/13 14:33:48;;;;;;;6.32;1.38;;;;;;;;;;5014707;28;20092;-82
2024/02/13 14:36:18;;;;;;;3.53;1.25;;;;;;;;;;5010407;28;20137;-82
2024/02/13 14:38:45;;;;;;;3.47;1.20;;;;;;;;;;5011737;28;20049;-82
2024/02/13 14:41:15;;;;;;;2.08;1.33;;;;;;;;;;5007674;28;20096;-82
2024/02/13 14:43:42;;;;;;;2.13;0.98;;;;;;;;;;5014930;28;20045;-82
2024/02/13 14:46:10;;;;;;;2.35;1.08;;;;;;;;;;5015181;28;20085;-82